Nearby METAR Reports

 

KMNN - Marion, Ohio, USA
Distance from station: ENE 4mi, 6km
Updated: 02/23/2019 11:28pm
Overcast
Overcast
 Wind from SSE
Wind: SSE 17 mph , 28 km/h
Temperature: 48°F , 9°C
Wind Chill: 42°F , 6°C
Dew Point: 46°F , 8°C
Humidity: 94%
Barometer: 29.61 inHg , 1002.7 hPa
Clouds: Overcast
Visibility: 10 miles , 16 km
Cloud details: Overcast 900 ft
2019/02/24 04:28 KMNN 240428Z AUTO 15015KT 10SM OVC009 09/08 A2961 RMK AO2 T00940078
KDLZ - Delaware, Ohio, USA
Distance from station: S 21mi, 34km
Updated: 02/23/2019 11:35pm
Light rain, Overcast
Light rain, Overcast
 Wind from SSE
Wind: SSE 16 mph , 26 km/h
Temperature: 52°F , 11°C
Dew Point: 50°F , 10°C
Humidity: 94%
Barometer: 29.62 inHg , 1003 hPa
Summary: Light rain
Clouds: Overcast
Visibility: 10 miles , 16 km
Cloud details: Overcast 700 ft
2019/02/24 04:35 KDLZ 240435Z AUTO 15014KT 10SM -RA OVC007 11/10 A2962 RMK AO2 P0001
 
KMRT - Marysville, Ohio, USA
Distance from station: SSW 28mi, 45km
Updated: 02/23/2019 11:36pm
Overcast
Overcast
 Wind from S
Wind: S 18 mph , 30 km/h
Temperature: 50°F , 10°C
Wind Chill: 44°F , 7°C
Dew Point: 50°F , 10°C
Humidity: 100%
Barometer: 29.60 inHg , 1002.4 hPa
Clouds: Overcast
Visibility: 7 miles , 11 km
Cloud details: Overcast 300 ft
2019/02/24 04:36 KMRT 240436Z AUTO 19016KT 7SM OVC003 10/10 A2960 RMK AO2 P0001 T01000095
KOSU - Columbus/St Univ, Ohio, USA
Distance from station: S 35mi, 56km
Updated: 02/23/2019 10:53pm
Light rain, Overcast
Light rain, Overcast
 Wind from S
Wind: S 20 mph , 31 km/h, Gust: 25 mph , 41 km/h
Temperature: 54°F , 12°C
Dew Point: 52°F , 11°C
Humidity: 94%
Barometer: 29.68 inHg , 1005.1 hPa
Summary: Light rain
Clouds: Overcast
Visibility: 10 miles , 16 km
Cloud details: Overcast 900 ft
2019/02/24 03:53 KOSU 240353Z 18017G22KT 10SM -RA OVC009 12/11 A2968 RMK AO2 RAB28 SLP053 P0000 T01170106
 
KMFD - Mansfield, Ohio, USA
Distance from station: ENE 36mi, 57km
Updated: 02/23/2019 10:52pm
Overcast
Overcast
 Wind from SE
Wind: SE 14 mph , 22 km/h
Temperature: 46°F , 8°C
Wind Chill: 40°F , 4°C
Dew Point: 45°F , 7°C
Humidity: 93%
Barometer: 29.70 inHg , 1005.8 hPa
Clouds: Overcast
Visibility: 10 miles , 16 km
Cloud details: Overcast 1000 ft
2019/02/24 03:52 KMFD 240352Z AUTO 14012KT 10SM OVC010 08/07 A2970 RMK AO2 SLP062 T00780072
K4I3 - Mt Vernon/Knox, Ohio, USA
Distance from station: ESE 36mi, 58km
Updated: 02/23/2019 11:36pm
Light rain, Overcast
Light rain, Overcast
 Wind from S
Wind: S 6 mph , 9 km/h
Temperature: 50°F , 10°C
Wind Chill: 48°F , 9°C
Dew Point: 50°F , 10°C
Humidity: 100%
Barometer: 29.71 inHg , 1006.1 hPa
Summary: Light rain
Clouds: Overcast
Visibility: 10 miles , 16 km
Cloud details: Overcast 1000 ft
2019/02/24 04:36 K4I3 240436Z AUTO 18005KT 10SM -RA OVC010 10/10 A2971 RMK AO2
 
KEDJ - Bellefontaine, Ohio, USA
Distance from station: WSW 39mi, 63km
Updated: 02/23/2019 11:35pm
Mostly cloudy
Mostly cloudy
 Wind from S
Wind: S 15 mph , 24 km/h
Temperature: 50°F , 10°C
Wind Chill: 45°F , 7°C
Barometer: 29.59 inHg , 1002 hPa
Clouds: Mostly cloudy
Visibility: 10 miles , 16 km
Cloud details: Mostly cloudy 500 ft
Mostly cloudy 9500 ft
2019/02/24 04:35 KEDJ 240435Z AUTO 19013KT 10SM BKN005 BKN095 10/ A2959 RMK AO1
KFDY - Findlay, Ohio, USA
Distance from station: NW 41mi, 66km
Updated: 02/23/2019 10:53pm
Light rain, Overcast
Light rain, Overcast
 Wind from SE
Wind: SE 18 mph , 30 km/h, Gust: 25 mph , 41 km/h
Temperature: 48°F , 9°C
Wind Chill: 41°F , 5°C
Dew Point: 46°F , 8°C
Humidity: 94%
Barometer: 29.56 inHg , 1001 hPa
Summary: Light rain
Clouds: Overcast
Visibility: 7 miles , 11 km
Cloud details: Overcast 600 ft
2019/02/24 03:53 KFDY 240353Z AUTO 13016G22KT 7SM -RA OVC006 09/08 A2956 RMK AO2 RAB48 PRESFR SLP012 P0000 T00890078
 
KCMH - Columbus, Ohio, USA
Distance from station: SSE 43mi, 69km
Updated: 02/23/2019 10:51pm
Overcast
Overcast
 Wind from S
Wind: S 13 mph , 20 km/h
Temperature: 54°F , 12°C
Dew Point: 50°F , 10°C
Humidity: 88%
Barometer: 29.69 inHg , 1005.4 hPa
Clouds: Overcast
Visibility: 10 miles , 16 km
Cloud details: Overcast 1200 ft
2019/02/24 03:51 KCMH 240351Z 18011KT 10SM OVC012 12/10 A2969 RMK AO2 SLP056 T01170100 $
KAOH - Lima, Ohio, USA
Distance from station: W 47mi, 76km
Updated: 02/23/2019 10:53pm
Overcast
Overcast
 Wind from SSE
Wind: SSE 18 mph , 30 km/h, Gust: 30 mph , 48 km/h
Temperature: 48°F , 9°C
Wind Chill: 41°F , 5°C
Dew Point: 46°F , 8°C
Humidity: 94%
Barometer: 29.56 inHg , 1001 hPa
Clouds: Overcast
Visibility: 10 miles , 16 km
Cloud details: Overcast 400 ft
2019/02/24 03:53 KAOH 240353Z AUTO 16016G26KT 10SM OVC004 09/08 A2956 RMK AO2 PK WND 15026/0349 RAB0259E52 SLP014 P0003 T00940083
 
KTZR - Columbus/Bolton, Ohio, USA
Distance from station: S 48mi, 77km
Updated: 02/23/2019 11:35pm
Rain, Overcast
Rain, Overcast
 Wind from S
Wind: S 12 mph , 19 km/h
Temperature: 52°F , 11°C
Dew Point: 52°F , 11°C
Humidity: 100%
Barometer: 29.65 inHg , 1004.1 hPa
Summary: Rain
Clouds: Overcast
Visibility: 10 miles , 16 km
Cloud details: Overcast 600 ft
2019/02/24 04:35 KTZR 240435Z AUTO 17010KT 10SM RA OVC006 11/11 A2965 RMK AO2 P0002 T01100107
KUYF - London, Ohio, USA
Distance from station: SSW 49mi, 78km
Updated: 02/23/2019 11:35pm
Light rain, Overcast
Light rain, Overcast
 Wind from S
Wind: S 14 mph , 22 km/h, Gust: 18 mph , 30 km/h
Temperature: 50°F , 10°C
Wind Chill: 45°F , 7°C
Dew Point: 48°F , 9°C
Humidity: 94%
Barometer: 29.63 inHg , 1003.4 hPa
Summary: Light rain
Clouds: Overcast
Visibility: 5 miles , 8 km
Cloud details: Overcast 300 ft
2019/02/24 04:35 KUYF 240435Z AUTO 17012G16KT 5SM -RA OVC003 10/09 A2963 RMK AO2 P0016